Homestead ARB Airport Homestead US
ICAO: KHST
IATA: HST
Category: Medium
Scheduled Services: No

Elevation: 5 ft
TransAlt. 18000 ft.

Airport Communications:
APP/DEP:123.8
ATIS:132.275
CLNC DEL:27.58
GCA:123.8
GND:121.75
93FS:138.025
PMSV METRO:31.865
COMD POST:25.21
PTD:37.22
TWR:133.45

KHST Zoom In..

If you have problems with the map follow the link
https://www.worldairports.se/pages/airport.php?
ICAO=KHST

Runways:

(A) RW 05 length 11200 ft width 300 ft
ILS 109.90 / hdg 52

(B) RW 23 length 11200 ft width 300 ft
---- / hdg 232

Location; KHST
Day. 23 / Time. 16.56 Zulu
* Altimeter: 30.04
* Temperature: 28° c. 82.4°f.
* Wind from: 070° Speed 08 kn.
Dewpoint: 21° c.
Visibility: 10 Statute Miles.
Clouds: Few 3300 ft.

KHST 231656Z AUTO 07008KT 10SM FEW033 28/21 A3004 RMK AO2 SLP176 T02840209 FZRANO VISNO RWY24 $


Wind From 070°
Speed 08 kn.

 
 
jpsmedia.com for Web Design worldairports.se 2018   terms of use